sensor_id;sensor_type;location;lat;lon;timestamp;P1;durP1;ratioP1;P2;durP2;ratioP2
72797;SDS011;61084;55.816;37.036;2023-04-03T00:01:38;17.45;;;10.73;;
72797;SDS011;61084;55.816;37.036;2023-04-03T00:04:05;17.00;;;10.88;;
72797;SDS011;61084;55.816;37.036;2023-04-03T00:06:31;20.25;;;10.80;;
72797;SDS011;61084;55.816;37.036;2023-04-03T00:08:57;17.73;;;9.90;;
72797;SDS011;61084;55.816;37.036;2023-04-03T00:11:29;19.05;;;9.68;;
72797;SDS011;61084;55.816;37.036;2023-04-03T00:13:55;17.83;;;10.32;;
72797;SDS011;61084;55.816;37.036;2023-04-03T00:16:22;15.68;;;9.40;;
72797;SDS011;61084;55.816;37.036;2023-04-03T00:18:47;17.23;;;11.00;;
72797;SDS011;61084;55.816;37.036;2023-04-03T00:21:13;16.92;;;10.20;;
72797;SDS011;61084;55.816;37.036;2023-04-03T00:23:40;17.45;;;10.48;;
72797;SDS011;61084;55.816;37.036;2023-04-03T00:26:06;15.02;;;9.95;;
72797;SDS011;61084;55.816;37.036;2023-04-03T00:28:32;16.40;;;10.18;;
72797;SDS011;61084;55.816;37.036;2023-04-03T00:30:58;18.13;;;9.70;;
72797;SDS011;61084;55.816;37.036;2023-04-03T00:33:24;18.63;;;9.40;;
72797;SDS011;61084;55.816;37.036;2023-04-03T00:35:50;15.60;;;9.10;;
72797;SDS011;61084;55.816;37.036;2023-04-03T00:38:16;13.95;;;9.52;;
72797;SDS011;61084;55.816;37.036;2023-04-03T00:40:43;14.10;;;9.70;;
72797;SDS011;61084;55.816;37.036;2023-04-03T00:43:12;16.63;;;9.73;;
72797;SDS011;61084;55.816;37.036;2023-04-03T00:45:40;19.77;;;10.68;;
72797;SDS011;61084;55.816;37.036;2023-04-03T00:48:08;17.80;;;10.18;;
72797;SDS011;61084;55.816;37.036;2023-04-03T00:50:38;21.30;;;11.05;;
72797;SDS011;61084;55.816;37.036;2023-04-03T00:53:07;18.42;;;11.18;;
72797;SDS011;61084;55.816;37.036;2023-04-03T00:55:38;18.67;;;10.55;;
72797;SDS011;61084;55.816;37.036;2023-04-03T00:58:05;17.42;;;9.40;;
72797;SDS011;61084;55.816;37.036;2023-04-03T01:00:32;17.90;;;9.93;;
72797;SDS011;61084;55.816;37.036;2023-04-03T01:03:01;15.05;;;8.43;;
72797;SDS011;61084;55.816;37.036;2023-04-03T01:05:27;13.40;;;8.73;;
72797;SDS011;61084;55.816;37.036;2023-04-03T01:07:53;15.43;;;9.35;;
72797;SDS011;61084;55.816;37.036;2023-04-03T01:10:19;18.33;;;9.43;;
72797;SDS011;61084;55.816;37.036;2023-04-03T01:12:47;15.73;;;9.50;;
72797;SDS011;61084;55.816;37.036;2023-04-03T01:15:17;16.02;;;9.35;;
72797;SDS011;61084;55.816;37.036;2023-04-03T01:17:52;15.50;;;9.35;;
72797;SDS011;61084;55.816;37.036;2023-04-03T01:25:38;15.65;;;8.73;;
72797;SDS011;61084;55.816;37.036;2023-04-03T01:28:24;14.98;;;9.50;;
72797;SDS011;61084;55.816;37.036;2023-04-03T01:31:12;14.05;;;8.95;;
72797;SDS011;61084;55.816;37.036;2023-04-03T01:33:46;18.23;;;9.23;;
72797;SDS011;61084;55.816;37.036;2023-04-03T01:36:22;16.98;;;9.00;;
72797;SDS011;61084;55.816;37.036;2023-04-03T01:38:52;16.88;;;10.20;;
72797;SDS011;61084;55.816;37.036;2023-04-03T01:41:22;16.13;;;9.63;;
72797;SDS011;61084;55.816;37.036;2023-04-03T01:43:51;15.65;;;8.20;;
72797;SDS011;61084;55.816;37.036;2023-04-03T01:46:17;11.48;;;8.27;;
72797;SDS011;61084;55.816;37.036;2023-04-03T01:48:44;16.02;;;8.05;;
72797;SDS011;61084;55.816;37.036;2023-04-03T01:51:10;11.73;;;6.97;;
72797;SDS011;61084;55.816;37.036;2023-04-03T01:53:37;13.00;;;8.10;;
72797;SDS011;61084;55.816;37.036;2023-04-03T01:56:03;16.60;;;9.23;;
72797;SDS011;61084;55.816;37.036;2023-04-03T01:58:31;16.55;;;8.57;;
72797;SDS011;61084;55.816;37.036;2023-04-03T02:00:57;11.52;;;7.97;;
72797;SDS011;61084;55.816;37.036;2023-04-03T02:03:22;13.52;;;8.18;;
72797;SDS011;61084;55.816;37.036;2023-04-03T02:05:49;16.05;;;8.73;;
72797;SDS011;61084;55.816;37.036;2023-04-03T02:08:15;13.25;;;9.10;;
72797;SDS011;61084;55.816;37.036;2023-04-03T02:10:44;14.95;;;8.52;;
72797;SDS011;61084;55.816;37.036;2023-04-03T02:13:12;11.57;;;7.80;;
72797;SDS011;61084;55.816;37.036;2023-04-03T02:15:38;13.57;;;7.22;;
72797;SDS011;61084;55.816;37.036;2023-04-03T02:18:11;13.25;;;8.13;;
72797;SDS011;61084;55.816;37.036;2023-04-03T02:20:37;13.13;;;7.80;;
72797;SDS011;61084;55.816;37.036;2023-04-03T02:23:04;13.32;;;7.10;;
72797;SDS011;61084;55.816;37.036;2023-04-03T02:25:31;14.35;;;8.52;;
72797;SDS011;61084;55.816;37.036;2023-04-03T02:28:11;18.70;;;9.32;;
72797;SDS011;61084;55.816;37.036;2023-04-03T02:30:37;13.52;;;9.00;;
72797;SDS011;61084;55.816;37.036;2023-04-03T02:33:03;15.30;;;8.02;;
72797;SDS011;61084;55.816;37.036;2023-04-03T02:35:30;16.35;;;8.60;;
72797;SDS011;61084;55.816;37.036;2023-04-03T02:37:57;13.98;;;9.10;;
72797;SDS011;61084;55.816;37.036;2023-04-03T02:40:23;16.40;;;8.88;;
72797;SDS011;61084;55.816;37.036;2023-04-03T02:42:49;16.05;;;9.38;;
72797;SDS011;61084;55.816;37.036;2023-04-03T02:45:17;16.75;;;9.10;;
72797;SDS011;61084;55.816;37.036;2023-04-03T02:47:43;16.00;;;8.60;;
72797;SDS011;61084;55.816;37.036;2023-04-03T02:50:10;13.35;;;8.90;;
72797;SDS011;61084;55.816;37.036;2023-04-03T02:52:35;15.05;;;9.20;;
72797;SDS011;61084;55.816;37.036;2023-04-03T02:55:01;15.60;;;8.52;;
72797;SDS011;61084;55.816;37.036;2023-04-03T02:57:28;15.80;;;10.15;;
72797;SDS011;61084;55.816;37.036;2023-04-03T02:59:54;14.75;;;9.40;;
72797;SDS011;61084;55.816;37.036;2023-04-03T03:02:20;13.15;;;8.60;;
72797;SDS011;61084;55.816;37.036;2023-04-03T03:04:46;16.48;;;9.32;;
72797;SDS011;61084;55.816;37.036;2023-04-03T03:07:20;16.83;;;9.07;;
72797;SDS011;61084;55.816;37.036;2023-04-03T03:09:45;14.75;;;9.32;;
72797;SDS011;61084;55.816;37.036;2023-04-03T03:12:11;15.27;;;9.23;;
72797;SDS011;61084;55.816;37.036;2023-04-03T03:14:37;14.70;;;8.27;;
72797;SDS011;61084;55.816;37.036;2023-04-03T03:17:03;13.73;;;8.23;;
72797;SDS011;61084;55.816;37.036;2023-04-03T03:19:29;11.85;;;7.90;;
72797;SDS011;61084;55.816;37.036;2023-04-03T03:21:54;13.68;;;8.52;;
72797;SDS011;61084;55.816;37.036;2023-04-03T03:24:27;11.52;;;7.85;;
72797;SDS011;61084;55.816;37.036;2023-04-03T03:26:53;13.68;;;8.55;;
72797;SDS011;61084;55.816;37.036;2023-04-03T03:29:19;15.32;;;8.85;;
72797;SDS011;61084;55.816;37.036;2023-04-03T03:31:45;13.75;;;8.50;;
72797;SDS011;61084;55.816;37.036;2023-04-03T03:34:11;13.70;;;7.97;;
72797;SDS011;61084;55.816;37.036;2023-04-03T03:36:38;12.35;;;8.40;;
72797;SDS011;61084;55.816;37.036;2023-04-03T03:39:04;13.63;;;8.00;;
72797;SDS011;61084;55.816;37.036;2023-04-03T03:41:30;12.85;;;8.60;;
72797;SDS011;61084;55.816;37.036;2023-04-03T03:43:56;13.15;;;8.30;;
72797;SDS011;61084;55.816;37.036;2023-04-03T03:46:31;12.93;;;8.90;;
72797;SDS011;61084;55.816;37.036;2023-04-03T03:48:57;16.55;;;8.80;;
72797;SDS011;61084;55.816;37.036;2023-04-03T03:51:23;16.30;;;9.77;;
72797;SDS011;61084;55.816;37.036;2023-04-03T03:53:55;17.35;;;10.68;;
72797;SDS011;61084;55.816;37.036;2023-04-03T03:56:21;15.98;;;10.23;;
72797;SDS011;61084;55.816;37.036;2023-04-03T03:58:47;15.18;;;9.95;;
72797;SDS011;61084;55.816;37.036;2023-04-03T04:01:14;21.77;;;10.77;;
72797;SDS011;61084;55.816;37.036;2023-04-03T04:03:46;20.20;;;12.00;;
72797;SDS011;61084;55.816;37.036;2023-04-03T04:06:23;17.05;;;10.32;;
72797;SDS011;61084;55.816;37.036;2023-04-03T04:08:51;17.30;;;10.82;;
72797;SDS011;61084;55.816;37.036;2023-04-03T04:11:16;18.45;;;10.48;;
72797;SDS011;61084;55.816;37.036;2023-04-03T04:13:44;16.77;;;10.13;;
72797;SDS011;61084;55.816;37.036;2023-04-03T04:16:11;17.23;;;10.52;;
72797;SDS011;61084;55.816;37.036;2023-04-03T04:18:37;17.67;;;10.48;;
72797;SDS011;61084;55.816;37.036;2023-04-03T04:21:03;15.80;;;9.90;;
72797;SDS011;61084;55.816;37.036;2023-04-03T04:23:30;17.38;;;11.30;;
72797;SDS011;61084;55.816;37.036;2023-04-03T04:25:57;19.27;;;11.43;;
72797;SDS011;61084;55.816;37.036;2023-04-03T04:28:24;20.80;;;12.23;;
72797;SDS011;61084;55.816;37.036;2023-04-03T04:30:52;18.88;;;11.25;;
72797;SDS011;61084;55.816;37.036;2023-04-03T04:33:19;22.23;;;11.27;;
72797;SDS011;61084;55.816;37.036;2023-04-03T04:35:47;24.85;;;12.82;;
72797;SDS011;61084;55.816;37.036;2023-04-03T04:38:17;19.92;;;11.57;;
72797;SDS011;61084;55.816;37.036;2023-04-03T04:40:44;22.10;;;11.57;;
72797;SDS011;61084;55.816;37.036;2023-04-03T04:43:10;19.70;;;11.40;;
72797;SDS011;61084;55.816;37.036;2023-04-03T04:45:40;19.95;;;11.98;;
72797;SDS011;61084;55.816;37.036;2023-04-03T04:48:06;21.45;;;11.38;;
72797;SDS011;61084;55.816;37.036;2023-04-03T04:50:32;19.45;;;11.23;;
72797;SDS011;61084;55.816;37.036;2023-04-03T04:52:58;19.52;;;11.35;;
72797;SDS011;61084;55.816;37.036;2023-04-03T04:55:24;19.40;;;11.93;;
72797;SDS011;61084;55.816;37.036;2023-04-03T04:57:49;21.50;;;12.50;;
72797;SDS011;61084;55.816;37.036;2023-04-03T05:00:16;19.50;;;11.18;;
72797;SDS011;61084;55.816;37.036;2023-04-03T05:02:43;20.70;;;11.05;;
72797;SDS011;61084;55.816;37.036;2023-04-03T05:05:10;20.67;;;11.50;;
72797;SDS011;61084;55.816;37.036;2023-04-03T05:07:36;18.20;;;11.32;;
72797;SDS011;61084;55.816;37.036;2023-04-03T05:10:02;20.52;;;12.00;;
72797;SDS011;61084;55.816;37.036;2023-04-03T05:12:30;20.23;;;11.30;;
72797;SDS011;61084;55.816;37.036;2023-04-03T05:14:59;18.95;;;11.85;;
72797;SDS011;61084;55.816;37.036;2023-04-03T05:17:27;20.17;;;11.23;;
72797;SDS011;61084;55.816;37.036;2023-04-03T05:19:55;19.80;;;11.48;;
72797;SDS011;61084;55.816;37.036;2023-04-03T05:22:22;19.35;;;10.80;;
72797;SDS011;61084;55.816;37.036;2023-04-03T05:24:50;26.50;;;12.77;;
72797;SDS011;61084;55.816;37.036;2023-04-03T05:27:17;26.30;;;12.82;;
72797;SDS011;61084;55.816;37.036;2023-04-03T05:29:49;22.75;;;12.10;;
72797;SDS011;61084;55.816;37.036;2023-04-03T05:32:19;22.58;;;12.35;;
72797;SDS011;61084;55.816;37.036;2023-04-03T05:34:50;19.73;;;11.27;;
72797;SDS011;61084;55.816;37.036;2023-04-03T05:37:18;21.25;;;11.55;;
72797;SDS011;61084;55.816;37.036;2023-04-03T05:39:44;20.27;;;11.48;;
72797;SDS011;61084;55.816;37.036;2023-04-03T05:42:10;19.15;;;10.77;;
72797;SDS011;61084;55.816;37.036;2023-04-03T05:44:37;21.75;;;12.40;;
72797;SDS011;61084;55.816;37.036;2023-04-03T05:47:04;18.25;;;10.73;;
72797;SDS011;61084;55.816;37.036;2023-04-03T05:49:30;21.10;;;11.45;;
72797;SDS011;61084;55.816;37.036;2023-04-03T05:51:57;22.90;;;11.32;;
72797;SDS011;61084;55.816;37.036;2023-04-03T05:54:27;22.48;;;10.95;;
72797;SDS011;61084;55.816;37.036;2023-04-03T05:57:04;22.05;;;10.93;;
72797;SDS011;61084;55.816;37.036;2023-04-03T05:59:30;19.58;;;10.70;;
72797;SDS011;61084;55.816;37.036;2023-04-03T06:04:59;20.10;;;11.48;;
72797;SDS011;61084;55.816;37.036;2023-04-03T06:07:25;19.58;;;11.63;;
72797;SDS011;61084;55.816;37.036;2023-04-03T06:09:56;26.05;;;12.70;;
72797;SDS011;61084;55.816;37.036;2023-04-03T06:12:22;19.92;;;11.43;;
72797;SDS011;61084;55.816;37.036;2023-04-03T06:14:49;21.05;;;12.38;;
72797;SDS011;61084;55.816;37.036;2023-04-03T06:17:15;25.10;;;12.45;;
72797;SDS011;61084;55.816;37.036;2023-04-03T06:19:43;21.95;;;11.70;;
72797;SDS011;61084;55.816;37.036;2023-04-03T06:22:09;18.55;;;11.88;;
72797;SDS011;61084;55.816;37.036;2023-04-03T06:24:38;22.50;;;12.20;;
72797;SDS011;61084;55.816;37.036;2023-04-03T06:29:29;22.42;;;12.65;;
72797;SDS011;61084;55.816;37.036;2023-04-03T06:31:56;24.15;;;11.85;;
72797;SDS011;61084;55.816;37.036;2023-04-03T06:34:22;25.90;;;13.93;;
72797;SDS011;61084;55.816;37.036;2023-04-03T06:36:48;25.13;;;13.30;;
72797;SDS011;61084;55.816;37.036;2023-04-03T06:39:14;21.27;;;11.70;;
72797;SDS011;61084;55.816;37.036;2023-04-03T06:41:43;22.90;;;11.43;;
72797;SDS011;61084;55.816;37.036;2023-04-03T06:44:09;20.77;;;11.65;;
72797;SDS011;61084;55.816;37.036;2023-04-03T06:46:37;23.08;;;12.23;;
72797;SDS011;61084;55.816;37.036;2023-04-03T06:49:03;22.63;;;12.35;;
72797;SDS011;61084;55.816;37.036;2023-04-03T06:51:29;18.27;;;11.48;;
72797;SDS011;61084;55.816;37.036;2023-04-03T06:53:56;20.17;;;12.77;;
72797;SDS011;61084;55.816;37.036;2023-04-03T06:56:24;22.48;;;11.55;;
72797;SDS011;61084;55.816;37.036;2023-04-03T06:58:51;21.75;;;11.13;;
72797;SDS011;61084;55.816;37.036;2023-04-03T07:01:20;19.77;;;11.27;;
72797;SDS011;61084;55.816;37.036;2023-04-03T07:03:47;19.55;;;10.68;;
72797;SDS011;61084;55.816;37.036;2023-04-03T07:06:14;23.27;;;11.52;;
72797;SDS011;61084;55.816;37.036;2023-04-03T07:08:40;26.17;;;11.25;;
72797;SDS011;61084;55.816;37.036;2023-04-03T07:11:07;22.52;;;12.88;;
72797;SDS011;61084;55.816;37.036;2023-04-03T07:13:34;23.67;;;11.65;;
72797;SDS011;61084;55.816;37.036;2023-04-03T07:16:00;20.60;;;11.68;;
72797;SDS011;61084;55.816;37.036;2023-04-03T07:18:26;21.13;;;11.40;;
72797;SDS011;61084;55.816;37.036;2023-04-03T07:20:52;18.98;;;10.15;;
72797;SDS011;61084;55.816;37.036;2023-04-03T07:23:18;23.45;;;11.25;;
72797;SDS011;61084;55.816;37.036;2023-04-03T07:25:48;17.13;;;10.02;;
72797;SDS011;61084;55.816;37.036;2023-04-03T07:28:15;19.77;;;9.75;;
72797;SDS011;61084;55.816;37.036;2023-04-03T07:30:43;16.10;;;10.30;;
72797;SDS011;61084;55.816;37.036;2023-04-03T07:33:20;17.13;;;10.20;;
72797;SDS011;61084;55.816;37.036;2023-04-03T07:35:47;22.30;;;10.70;;
72797;SDS011;61084;55.816;37.036;2023-04-03T07:38:13;21.00;;;11.25;;
72797;SDS011;61084;55.816;37.036;2023-04-03T07:40:39;24.63;;;10.43;;
72797;SDS011;61084;55.816;37.036;2023-04-03T07:43:10;20.35;;;10.57;;
72797;SDS011;61084;55.816;37.036;2023-04-03T07:45:36;20.98;;;10.27;;
72797;SDS011;61084;55.816;37.036;2023-04-03T07:48:02;18.83;;;10.63;;
72797;SDS011;61084;55.816;37.036;2023-04-03T07:50:28;21.70;;;11.00;;
72797;SDS011;61084;55.816;37.036;2023-04-03T07:52:55;22.20;;;11.65;;
72797;SDS011;61084;55.816;37.036;2023-04-03T07:55:23;20.77;;;10.93;;
72797;SDS011;61084;55.816;37.036;2023-04-03T07:57:49;21.17;;;10.27;;
72797;SDS011;61084;55.816;37.036;2023-04-03T08:00:15;21.38;;;10.68;;
72797;SDS011;61084;55.816;37.036;2023-04-03T08:02:43;24.77;;;11.68;;
72797;SDS011;61084;55.816;37.036;2023-04-03T08:05:10;27.33;;;11.93;;
72797;SDS011;61084;55.816;37.036;2023-04-03T08:10:03;21.58;;;11.80;;
72797;SDS011;61084;55.816;37.036;2023-04-03T08:12:29;24.25;;;13.15;;
72797;SDS011;61084;55.816;37.036;2023-04-03T08:14:55;22.67;;;11.90;;
72797;SDS011;61084;55.816;37.036;2023-04-03T08:17:21;21.25;;;11.38;;
72797;SDS011;61084;55.816;37.036;2023-04-03T08:19:47;20.30;;;11.45;;
72797;SDS011;61084;55.816;37.036;2023-04-03T08:22:13;16.80;;;11.05;;
72797;SDS011;61084;55.816;37.036;2023-04-03T08:24:38;17.85;;;11.27;;
72797;SDS011;61084;55.816;37.036;2023-04-03T08:27:04;23.80;;;11.05;;
72797;SDS011;61084;55.816;37.036;2023-04-03T08:29:30;21.75;;;11.60;;
72797;SDS011;61084;55.816;37.036;2023-04-03T08:31:56;19.65;;;11.32;;
72797;SDS011;61084;55.816;37.036;2023-04-03T08:34:22;21.83;;;11.40;;
72797;SDS011;61084;55.816;37.036;2023-04-03T08:36:48;23.17;;;11.68;;
72797;SDS011;61084;55.816;37.036;2023-04-03T08:39:14;19.50;;;10.57;;
72797;SDS011;61084;55.816;37.036;2023-04-03T08:41:43;20.77;;;11.38;;
72797;SDS011;61084;55.816;37.036;2023-04-03T08:51:56;21.05;;;11.35;;
72797;SDS011;61084;55.816;37.036;2023-04-03T08:54:48;18.80;;;10.73;;
72797;SDS011;61084;55.816;37.036;2023-04-03T08:57:29;21.38;;;11.18;;
72797;SDS011;61084;55.816;37.036;2023-04-03T09:00:06;22.73;;;10.68;;
72797;SDS011;61084;55.816;37.036;2023-04-03T09:02:44;18.58;;;10.77;;
72797;SDS011;61084;55.816;37.036;2023-04-03T09:05:17;18.20;;;11.05;;
72797;SDS011;61084;55.816;37.036;2023-04-03T09:10:27;21.85;;;11.05;;
72797;SDS011;61084;55.816;37.036;2023-04-03T09:13:06;20.08;;;11.07;;
72797;SDS011;61084;55.816;37.036;2023-04-03T09:15:48;19.48;;;11.23;;
72797;SDS011;61084;55.816;37.036;2023-04-03T09:18:19;18.98;;;10.13;;
72797;SDS011;61084;55.816;37.036;2023-04-03T09:21:01;23.83;;;10.52;;
72797;SDS011;61084;55.816;37.036;2023-04-03T09:23:32;20.27;;;10.60;;
72797;SDS011;61084;55.816;37.036;2023-04-03T09:26:13;23.55;;;11.85;;
72797;SDS011;61084;55.816;37.036;2023-04-03T09:28:43;20.40;;;10.43;;
72797;SDS011;61084;55.816;37.036;2023-04-03T09:31:43;21.33;;;12.70;;
72797;SDS011;61084;55.816;37.036;2023-04-03T09:34:10;24.50;;;10.68;;
72797;SDS011;61084;55.816;37.036;2023-04-03T09:39:14;19.17;;;10.43;;
72797;SDS011;61084;55.816;37.036;2023-04-03T09:41:58;24.15;;;10.52;;
72797;SDS011;61084;55.816;37.036;2023-04-03T09:44:48;21.67;;;10.32;;
72797;SDS011;61084;55.816;37.036;2023-04-03T09:47:39;23.17;;;11.05;;
72797;SDS011;61084;55.816;37.036;2023-04-03T09:52:40;20.13;;;10.15;;
72797;SDS011;61084;55.816;37.036;2023-04-03T09:55:18;27.63;;;10.73;;
72797;SDS011;61084;55.816;37.036;2023-04-03T09:57:52;26.42;;;10.93;;
72797;SDS011;61084;55.816;37.036;2023-04-03T10:00:23;17.90;;;9.70;;
72797;SDS011;61084;55.816;37.036;2023-04-03T10:02:55;21.70;;;9.70;;
72797;SDS011;61084;55.816;37.036;2023-04-03T10:08:19;18.98;;;9.80;;
72797;SDS011;61084;55.816;37.036;2023-04-03T10:11:04;22.67;;;10.95;;
72797;SDS011;61084;55.816;37.036;2023-04-03T10:13:31;21.83;;;10.52;;
72797;SDS011;61084;55.816;37.036;2023-04-03T10:16:01;19.83;;;10.73;;
72797;SDS011;61084;55.816;37.036;2023-04-03T10:18:33;21.58;;;11.45;;
72797;SDS011;61084;55.816;37.036;2023-04-03T10:21:14;21.67;;;12.05;;
72797;SDS011;61084;55.816;37.036;2023-04-03T10:26:35;18.23;;;10.48;;
72797;SDS011;61084;55.816;37.036;2023-04-03T10:31:51;21.02;;;10.27;;
72797;SDS011;61084;55.816;37.036;2023-04-03T10:34:39;20.23;;;10.20;;
72797;SDS011;61084;55.816;37.036;2023-04-03T10:37:21;20.05;;;9.98;;
72797;SDS011;61084;55.816;37.036;2023-04-03T10:45:24;27.85;;;9.80;;
72797;SDS011;61084;55.816;37.036;2023-04-03T10:48:30;17.05;;;8.98;;
72797;SDS011;61084;55.816;37.036;2023-04-03T10:54:05;18.08;;;9.15;;
72797;SDS011;61084;55.816;37.036;2023-04-03T10:56:43;22.60;;;8.70;;
72797;SDS011;61084;55.816;37.036;2023-04-03T10:59:25;20.30;;;10.35;;
72797;SDS011;61084;55.816;37.036;2023-04-03T11:01:56;19.88;;;9.05;;
72797;SDS011;61084;55.816;37.036;2023-04-03T11:04:26;19.27;;;7.93;;
72797;SDS011;61084;55.816;37.036;2023-04-03T11:07:00;18.27;;;9.10;;
72797;SDS011;61084;55.816;37.036;2023-04-03T11:09:28;21.48;;;9.00;;
72797;SDS011;61084;55.816;37.036;2023-04-03T11:12:05;24.05;;;8.18;;
72797;SDS011;61084;55.816;37.036;2023-04-03T11:14:37;17.13;;;8.35;;
72797;SDS011;61084;55.816;37.036;2023-04-03T11:19:40;23.50;;;8.93;;
72797;SDS011;61084;55.816;37.036;2023-04-03T11:24:50;17.98;;;9.27;;
72797;SDS011;61084;55.816;37.036;2023-04-03T11:27:30;18.02;;;8.77;;
72797;SDS011;61084;55.816;37.036;2023-04-03T11:30:05;27.45;;;8.45;;
72797;SDS011;61084;55.816;37.036;2023-04-03T11:33:09;19.35;;;8.73;;
72797;SDS011;61084;55.816;37.036;2023-04-03T11:35:42;19.63;;;8.80;;
72797;SDS011;61084;55.816;37.036;2023-04-03T11:38:17;25.33;;;8.07;;
72797;SDS011;61084;55.816;37.036;2023-04-03T11:40:48;18.30;;;8.80;;
72797;SDS011;61084;55.816;37.036;2023-04-03T11:46:06;15.93;;;8.38;;
72797;SDS011;61084;55.816;37.036;2023-04-03T11:53:38;16.60;;;8.27;;
72797;SDS011;61084;55.816;37.036;2023-04-03T12:04:20;21.70;;;8.77;;
72797;SDS011;61084;55.816;37.036;2023-04-03T12:09:31;19.35;;;8.55;;
72797;SDS011;61084;55.816;37.036;2023-04-03T12:12:01;17.60;;;7.88;;
72797;SDS011;61084;55.816;37.036;2023-04-03T12:14:51;15.38;;;7.82;;
72797;SDS011;61084;55.816;37.036;2023-04-03T12:17:26;21.20;;;8.00;;
72797;SDS011;61084;55.816;37.036;2023-04-03T12:19:54;16.80;;;7.20;;
72797;SDS011;61084;55.816;37.036;2023-04-03T12:22:20;18.67;;;8.15;;
72797;SDS011;61084;55.816;37.036;2023-04-03T12:24:50;20.25;;;8.20;;
72797;SDS011;61084;55.816;37.036;2023-04-03T12:29:50;15.23;;;7.70;;
72797;SDS011;61084;55.816;37.036;2023-04-03T12:35:05;19.98;;;8.57;;
72797;SDS011;61084;55.816;37.036;2023-04-03T12:37:39;13.98;;;7.63;;
72797;SDS011;61084;55.816;37.036;2023-04-03T12:48:27;15.02;;;7.80;;
72797;SDS011;61084;55.816;37.036;2023-04-03T12:50:54;19.48;;;8.43;;
72797;SDS011;61084;55.816;37.036;2023-04-03T12:53:26;27.88;;;8.32;;
72797;SDS011;61084;55.816;37.036;2023-04-03T12:58:46;19.27;;;8.02;;
72797;SDS011;61084;55.816;37.036;2023-04-03T13:01:13;23.05;;;8.38;;
72797;SDS011;61084;55.816;37.036;2023-04-03T13:03:43;23.13;;;8.38;;
72797;SDS011;61084;55.816;37.036;2023-04-03T13:06:22;23.73;;;8.45;;
72797;SDS011;61084;55.816;37.036;2023-04-03T13:08:54;18.33;;;8.00;;
72797;SDS011;61084;55.816;37.036;2023-04-03T13:11:30;21.63;;;7.57;;
72797;SDS011;61084;55.816;37.036;2023-04-03T13:14:02;21.30;;;8.02;;
72797;SDS011;61084;55.816;37.036;2023-04-03T13:16:30;20.63;;;7.90;;
72797;SDS011;61084;55.816;37.036;2023-04-03T13:18:58;28.80;;;8.20;;
72797;SDS011;61084;55.816;37.036;2023-04-03T13:21:26;21.55;;;8.27;;
72797;SDS011;61084;55.816;37.036;2023-04-03T13:23:56;21.88;;;7.82;;
72797;SDS011;61084;55.816;37.036;2023-04-03T13:26:26;21.58;;;7.55;;
72797;SDS011;61084;55.816;37.036;2023-04-03T13:28:58;22.20;;;7.78;;
72797;SDS011;61084;55.816;37.036;2023-04-03T13:31:29;19.65;;;7.30;;
72797;SDS011;61084;55.816;37.036;2023-04-03T13:36:46;22.95;;;7.80;;
72797;SDS011;61084;55.816;37.036;2023-04-03T13:39:23;26.25;;;7.95;;
72797;SDS011;61084;55.816;37.036;2023-04-03T13:41:53;19.25;;;7.90;;
72797;SDS011;61084;55.816;37.036;2023-04-03T13:46:49;15.07;;;7.03;;
72797;SDS011;61084;55.816;37.036;2023-04-03T13:49:31;14.15;;;7.00;;
72797;SDS011;61084;55.816;37.036;2023-04-03T13:54:56;19.20;;;7.80;;
72797;SDS011;61084;55.816;37.036;2023-04-03T13:57:28;16.55;;;7.75;;
72797;SDS011;61084;55.816;37.036;2023-04-03T13:59:54;15.48;;;6.85;;
72797;SDS011;61084;55.816;37.036;2023-04-03T14:02:21;17.77;;;7.20;;
72797;SDS011;61084;55.816;37.036;2023-04-03T14:04:58;18.92;;;8.75;;
72797;SDS011;61084;55.816;37.036;2023-04-03T14:07:29;18.92;;;9.38;;
72797;SDS011;61084;55.816;37.036;2023-04-03T14:09:56;17.30;;;9.45;;
72797;SDS011;61084;55.816;37.036;2023-04-03T14:12:33;20.65;;;9.93;;
72797;SDS011;61084;55.816;37.036;2023-04-03T14:15:01;20.60;;;10.23;;
72797;SDS011;61084;55.816;37.036;2023-04-03T14:17:30;19.35;;;10.52;;
72797;SDS011;61084;55.816;37.036;2023-04-03T14:19:56;16.27;;;9.75;;
72797;SDS011;61084;55.816;37.036;2023-04-03T14:22:27;18.05;;;8.80;;
72797;SDS011;61084;55.816;37.036;2023-04-03T14:24:54;19.27;;;9.43;;
72797;SDS011;61084;55.816;37.036;2023-04-03T14:29:52;22.60;;;9.70;;
72797;SDS011;61084;55.816;37.036;2023-04-03T14:32:20;16.60;;;9.55;;
72797;SDS011;61084;55.816;37.036;2023-04-03T14:34:48;16.50;;;9.60;;
72797;SDS011;61084;55.816;37.036;2023-04-03T14:39:42;18.52;;;9.70;;
72797;SDS011;61084;55.816;37.036;2023-04-03T14:42:12;16.80;;;8.48;;
72797;SDS011;61084;55.816;37.036;2023-04-03T14:44:40;15.27;;;9.38;;
72797;SDS011;61084;55.816;37.036;2023-04-03T14:47:09;16.33;;;9.35;;
72797;SDS011;61084;55.816;37.036;2023-04-03T14:49:36;18.92;;;9.25;;
72797;SDS011;61084;55.816;37.036;2023-04-03T14:52:02;20.20;;;9.80;;
72797;SDS011;61084;55.816;37.036;2023-04-03T14:54:28;20.52;;;10.68;;
72797;SDS011;61084;55.816;37.036;2023-04-03T14:56:55;19.05;;;9.93;;
72797;SDS011;61084;55.816;37.036;2023-04-03T14:59:22;20.02;;;9.60;;
72797;SDS011;61084;55.816;37.036;2023-04-03T15:01:54;23.60;;;9.85;;
72797;SDS011;61084;55.816;37.036;2023-04-03T15:04:22;18.42;;;9.52;;
72797;SDS011;61084;55.816;37.036;2023-04-03T15:07:08;17.00;;;9.60;;
72797;SDS011;61084;55.816;37.036;2023-04-03T15:09:35;19.83;;;8.73;;
72797;SDS011;61084;55.816;37.036;2023-04-03T15:12:02;14.73;;;8.52;;
72797;SDS011;61084;55.816;37.036;2023-04-03T15:14:28;17.52;;;8.70;;
72797;SDS011;61084;55.816;37.036;2023-04-03T15:16:53;17.48;;;8.80;;
72797;SDS011;61084;55.816;37.036;2023-04-03T15:19:19;21.63;;;9.35;;
72797;SDS011;61084;55.816;37.036;2023-04-03T15:21:45;14.18;;;8.57;;
72797;SDS011;61084;55.816;37.036;2023-04-03T15:24:11;23.52;;;9.07;;
72797;SDS011;61084;55.816;37.036;2023-04-03T15:26:36;19.60;;;8.20;;
72797;SDS011;61084;55.816;37.036;2023-04-03T15:29:03;22.50;;;10.05;;
72797;SDS011;61084;55.816;37.036;2023-04-03T15:31:29;18.63;;;9.55;;
72797;SDS011;61084;55.816;37.036;2023-04-03T15:33:55;18.25;;;9.27;;
72797;SDS011;61084;55.816;37.036;2023-04-03T15:36:21;17.08;;;8.45;;
72797;SDS011;61084;55.816;37.036;2023-04-03T15:38:47;15.80;;;9.35;;
72797;SDS011;61084;55.816;37.036;2023-04-03T15:41:12;18.75;;;9.75;;
72797;SDS011;61084;55.816;37.036;2023-04-03T15:43:38;16.05;;;9.48;;
72797;SDS011;61084;55.816;37.036;2023-04-03T15:46:04;15.40;;;8.52;;
72797;SDS011;61084;55.816;37.036;2023-04-03T15:48:30;20.25;;;9.25;;
72797;SDS011;61084;55.816;37.036;2023-04-03T15:50:56;17.38;;;8.95;;
72797;SDS011;61084;55.816;37.036;2023-04-03T15:53:22;14.88;;;8.43;;
72797;SDS011;61084;55.816;37.036;2023-04-03T15:55:48;19.40;;;9.82;;
72797;SDS011;61084;55.816;37.036;2023-04-03T15:58:14;17.35;;;9.20;;
72797;SDS011;61084;55.816;37.036;2023-04-03T16:00:40;15.95;;;8.23;;
72797;SDS011;61084;55.816;37.036;2023-04-03T16:03:08;23.77;;;8.82;;
72797;SDS011;61084;55.816;37.036;2023-04-03T16:05:37;15.30;;;7.55;;
72797;SDS011;61084;55.816;37.036;2023-04-03T16:08:04;15.30;;;8.10;;